sensor_id;sensor_type;location;lat;lon;timestamp;P1;durP1;ratioP1;P2;durP2;ratioP2
67508;SDS011;54354;44.724;11.284;2024-02-26T00:01:36;14.68;;;11.05;;
67508;SDS011;54354;44.724;11.284;2024-02-26T00:04:01;12.73;;;10.75;;
67508;SDS011;54354;44.724;11.284;2024-02-26T00:06:28;12.35;;;10.70;;
67508;SDS011;54354;44.724;11.284;2024-02-26T00:08:54;15.25;;;10.52;;
67508;SDS011;54354;44.724;11.284;2024-02-26T00:11:19;14.35;;;10.98;;
67508;SDS011;54354;44.724;11.284;2024-02-26T00:13:45;14.15;;;10.73;;
67508;SDS011;54354;44.724;11.284;2024-02-26T00:16:10;13.93;;;10.50;;
67508;SDS011;54354;44.724;11.284;2024-02-26T00:18:36;12.90;;;11.52;;
67508;SDS011;54354;44.724;11.284;2024-02-26T00:21:02;14.02;;;10.75;;
67508;SDS011;54354;44.724;11.284;2024-02-26T00:23:27;14.35;;;10.98;;
67508;SDS011;54354;44.724;11.284;2024-02-26T00:25:53;15.15;;;10.90;;
67508;SDS011;54354;44.724;11.284;2024-02-26T00:28:19;13.43;;;11.07;;
67508;SDS011;54354;44.724;11.284;2024-02-26T00:30:45;13.98;;;10.88;;
67508;SDS011;54354;44.724;11.284;2024-02-26T00:33:11;13.98;;;10.65;;
67508;SDS011;54354;44.724;11.284;2024-02-26T00:35:37;13.57;;;10.27;;
67508;SDS011;54354;44.724;11.284;2024-02-26T00:38:03;15.02;;;11.52;;
67508;SDS011;54354;44.724;11.284;2024-02-26T00:40:29;15.48;;;10.82;;
67508;SDS011;54354;44.724;11.284;2024-02-26T00:42:55;17.48;;;10.95;;
67508;SDS011;54354;44.724;11.284;2024-02-26T00:45:20;17.50;;;11.07;;
67508;SDS011;54354;44.724;11.284;2024-02-26T00:47:46;12.95;;;10.85;;
67508;SDS011;54354;44.724;11.284;2024-02-26T00:50:12;14.25;;;10.32;;
67508;SDS011;54354;44.724;11.284;2024-02-26T00:52:38;13.73;;;10.90;;
67508;SDS011;54354;44.724;11.284;2024-02-26T00:55:04;16.38;;;11.27;;
67508;SDS011;54354;44.724;11.284;2024-02-26T00:57:30;14.65;;;10.43;;
67508;SDS011;54354;44.724;11.284;2024-02-26T00:59:55;14.65;;;11.13;;
67508;SDS011;54354;44.724;11.284;2024-02-26T01:02:21;14.63;;;10.80;;
67508;SDS011;54354;44.724;11.284;2024-02-26T01:04:47;12.63;;;10.88;;
67508;SDS011;54354;44.724;11.284;2024-02-26T01:07:13;15.98;;;11.77;;
67508;SDS011;54354;44.724;11.284;2024-02-26T01:09:38;18.48;;;12.00;;
67508;SDS011;54354;44.724;11.284;2024-02-26T01:12:04;14.43;;;11.00;;
67508;SDS011;54354;44.724;11.284;2024-02-26T01:14:29;12.30;;;10.52;;
67508;SDS011;54354;44.724;11.284;2024-02-26T01:16:55;14.93;;;9.90;;
67508;SDS011;54354;44.724;11.284;2024-02-26T01:19:20;13.38;;;10.90;;
67508;SDS011;54354;44.724;11.284;2024-02-26T01:21:46;12.93;;;10.05;;
67508;SDS011;54354;44.724;11.284;2024-02-26T01:24:12;11.68;;;9.88;;
67508;SDS011;54354;44.724;11.284;2024-02-26T01:26:37;11.68;;;8.75;;
67508;SDS011;54354;44.724;11.284;2024-02-26T01:29:03;12.50;;;8.75;;
67508;SDS011;54354;44.724;11.284;2024-02-26T01:31:28;9.50;;;8.27;;
67508;SDS011;54354;44.724;11.284;2024-02-26T01:33:54;9.75;;;8.10;;
67508;SDS011;54354;44.724;11.284;2024-02-26T01:36:19;11.07;;;8.45;;
67508;SDS011;54354;44.724;11.284;2024-02-26T01:38:46;8.93;;;7.90;;
67508;SDS011;54354;44.724;11.284;2024-02-26T01:41:13;8.52;;;7.65;;
67508;SDS011;54354;44.724;11.284;2024-02-26T01:43:39;8.60;;;7.80;;
67508;SDS011;54354;44.724;11.284;2024-02-26T01:46:05;10.80;;;7.75;;
67508;SDS011;54354;44.724;11.284;2024-02-26T01:48:31;10.98;;;8.32;;
67508;SDS011;54354;44.724;11.284;2024-02-26T01:50:57;11.57;;;8.63;;
67508;SDS011;54354;44.724;11.284;2024-02-26T01:53:23;11.02;;;8.20;;
67508;SDS011;54354;44.724;11.284;2024-02-26T01:55:49;9.65;;;8.20;;
67508;SDS011;54354;44.724;11.284;2024-02-26T01:58:15;11.43;;;7.80;;
67508;SDS011;54354;44.724;11.284;2024-02-26T02:00:41;9.13;;;8.23;;
67508;SDS011;54354;44.724;11.284;2024-02-26T02:03:07;10.68;;;8.27;;
67508;SDS011;54354;44.724;11.284;2024-02-26T02:05:33;8.50;;;7.50;;
67508;SDS011;54354;44.724;11.284;2024-02-26T02:07:59;8.20;;;7.00;;
67508;SDS011;54354;44.724;11.284;2024-02-26T02:10:26;11.20;;;7.43;;
67508;SDS011;54354;44.724;11.284;2024-02-26T02:12:52;7.78;;;6.97;;
67508;SDS011;54354;44.724;11.284;2024-02-26T02:15:17;8.30;;;7.10;;
67508;SDS011;54354;44.724;11.284;2024-02-26T02:17:43;7.88;;;6.60;;
67508;SDS011;54354;44.724;11.284;2024-02-26T02:20:09;10.35;;;6.95;;
67508;SDS011;54354;44.724;11.284;2024-02-26T02:22:40;10.10;;;7.20;;
67508;SDS011;54354;44.724;11.284;2024-02-26T02:25:05;9.15;;;7.45;;
67508;SDS011;54354;44.724;11.284;2024-02-26T02:27:31;9.43;;;7.40;;
67508;SDS011;54354;44.724;11.284;2024-02-26T02:29:57;9.50;;;7.38;;
67508;SDS011;54354;44.724;11.284;2024-02-26T02:32:22;8.95;;;7.35;;
67508;SDS011;54354;44.724;11.284;2024-02-26T02:34:50;9.48;;;7.20;;
67508;SDS011;54354;44.724;11.284;2024-02-26T02:37:16;11.02;;;7.05;;
67508;SDS011;54354;44.724;11.284;2024-02-26T02:39:41;10.40;;;7.18;;
67508;SDS011;54354;44.724;11.284;2024-02-26T02:42:08;10.32;;;7.43;;
67508;SDS011;54354;44.724;11.284;2024-02-26T02:44:34;10.02;;;8.07;;
67508;SDS011;54354;44.724;11.284;2024-02-26T02:46:59;8.55;;;7.57;;
67508;SDS011;54354;44.724;11.284;2024-02-26T02:49:25;10.52;;;7.35;;
67508;SDS011;54354;44.724;11.284;2024-02-26T02:51:51;9.05;;;7.50;;
67508;SDS011;54354;44.724;11.284;2024-02-26T02:54:18;9.30;;;7.30;;
67508;SDS011;54354;44.724;11.284;2024-02-26T02:56:44;9.00;;;7.53;;
67508;SDS011;54354;44.724;11.284;2024-02-26T02:59:09;10.13;;;7.90;;
67508;SDS011;54354;44.724;11.284;2024-02-26T03:01:35;7.93;;;6.82;;
67508;SDS011;54354;44.724;11.284;2024-02-26T03:04:00;9.27;;;7.05;;
67508;SDS011;54354;44.724;11.284;2024-02-26T03:06:26;8.00;;;7.30;;
67508;SDS011;54354;44.724;11.284;2024-02-26T03:08:53;7.82;;;6.97;;
67508;SDS011;54354;44.724;11.284;2024-02-26T03:11:19;8.20;;;6.50;;
67508;SDS011;54354;44.724;11.284;2024-02-26T03:13:45;9.50;;;6.25;;
67508;SDS011;54354;44.724;11.284;2024-02-26T03:16:11;8.60;;;6.90;;
67508;SDS011;54354;44.724;11.284;2024-02-26T03:18:39;7.78;;;6.97;;
67508;SDS011;54354;44.724;11.284;2024-02-26T03:21:05;9.02;;;7.57;;
67508;SDS011;54354;44.724;11.284;2024-02-26T03:23:31;7.50;;;6.45;;
67508;SDS011;54354;44.724;11.284;2024-02-26T03:26:01;8.20;;;7.15;;
67508;SDS011;54354;44.724;11.284;2024-02-26T03:28:28;8.73;;;7.65;;
67508;SDS011;54354;44.724;11.284;2024-02-26T03:30:54;8.55;;;7.65;;
67508;SDS011;54354;44.724;11.284;2024-02-26T03:33:21;8.95;;;7.90;;
67508;SDS011;54354;44.724;11.284;2024-02-26T03:35:48;10.38;;;7.45;;
67508;SDS011;54354;44.724;11.284;2024-02-26T03:38:13;8.13;;;7.28;;
67508;SDS011;54354;44.724;11.284;2024-02-26T03:40:38;7.70;;;6.43;;
67508;SDS011;54354;44.724;11.284;2024-02-26T03:43:04;6.90;;;6.22;;
67508;SDS011;54354;44.724;11.284;2024-02-26T03:45:32;8.82;;;6.72;;
67508;SDS011;54354;44.724;11.284;2024-02-26T03:47:57;7.30;;;6.50;;
67508;SDS011;54354;44.724;11.284;2024-02-26T03:50:23;8.20;;;6.57;;
67508;SDS011;54354;44.724;11.284;2024-02-26T03:52:49;9.00;;;5.70;;
67508;SDS011;54354;44.724;11.284;2024-02-26T03:55:14;8.40;;;6.43;;
67508;SDS011;54354;44.724;11.284;2024-02-26T03:57:40;7.28;;;6.05;;
67508;SDS011;54354;44.724;11.284;2024-02-26T04:00:06;6.93;;;5.43;;
67508;SDS011;54354;44.724;11.284;2024-02-26T04:02:36;7.00;;;5.65;;
67508;SDS011;54354;44.724;11.284;2024-02-26T04:05:01;8.38;;;5.80;;
67508;SDS011;54354;44.724;11.284;2024-02-26T04:07:27;6.53;;;5.40;;
67508;SDS011;54354;44.724;11.284;2024-02-26T04:09:52;6.07;;;5.18;;
67508;SDS011;54354;44.724;11.284;2024-02-26T04:12:18;7.30;;;4.97;;
67508;SDS011;54354;44.724;11.284;2024-02-26T04:14:43;6.20;;;5.05;;
67508;SDS011;54354;44.724;11.284;2024-02-26T04:17:09;7.07;;;5.25;;
67508;SDS011;54354;44.724;11.284;2024-02-26T04:19:36;8.27;;;5.28;;
67508;SDS011;54354;44.724;11.284;2024-02-26T04:22:01;6.05;;;5.45;;
67508;SDS011;54354;44.724;11.284;2024-02-26T04:24:27;7.90;;;5.25;;
67508;SDS011;54354;44.724;11.284;2024-02-26T04:26:52;7.28;;;5.72;;
67508;SDS011;54354;44.724;11.284;2024-02-26T04:29:18;6.75;;;5.50;;
67508;SDS011;54354;44.724;11.284;2024-02-26T04:31:43;6.47;;;5.80;;
67508;SDS011;54354;44.724;11.284;2024-02-26T04:34:11;6.10;;;5.50;;
67508;SDS011;54354;44.724;11.284;2024-02-26T04:36:36;6.32;;;5.38;;
67508;SDS011;54354;44.724;11.284;2024-02-26T04:39:02;6.35;;;5.70;;
67508;SDS011;54354;44.724;11.284;2024-02-26T04:41:27;7.10;;;5.43;;
67508;SDS011;54354;44.724;11.284;2024-02-26T04:43:53;7.85;;;5.60;;
67508;SDS011;54354;44.724;11.284;2024-02-26T04:46:18;5.78;;;5.05;;
67508;SDS011;54354;44.724;11.284;2024-02-26T04:48:44;6.25;;;5.70;;
67508;SDS011;54354;44.724;11.284;2024-02-26T04:51:11;5.80;;;5.20;;
67508;SDS011;54354;44.724;11.284;2024-02-26T04:53:37;6.32;;;5.60;;
67508;SDS011;54354;44.724;11.284;2024-02-26T04:56:02;5.82;;;4.93;;
67508;SDS011;54354;44.724;11.284;2024-02-26T04:58:28;6.75;;;5.43;;
67508;SDS011;54354;44.724;11.284;2024-02-26T05:00:54;6.10;;;5.03;;
67508;SDS011;54354;44.724;11.284;2024-02-26T05:03:20;6.45;;;5.30;;
67508;SDS011;54354;44.724;11.284;2024-02-26T05:05:46;6.07;;;5.47;;
67508;SDS011;54354;44.724;11.284;2024-02-26T05:08:12;6.88;;;5.78;;
67508;SDS011;54354;44.724;11.284;2024-02-26T05:10:37;6.90;;;5.45;;
67508;SDS011;54354;44.724;11.284;2024-02-26T05:13:06;6.60;;;5.43;;
67508;SDS011;54354;44.724;11.284;2024-02-26T05:15:32;5.97;;;5.45;;
67508;SDS011;54354;44.724;11.284;2024-02-26T05:17:57;6.30;;;5.63;;
67508;SDS011;54354;44.724;11.284;2024-02-26T05:20:24;10.38;;;5.72;;
67508;SDS011;54354;44.724;11.284;2024-02-26T05:22:50;7.88;;;5.75;;
67508;SDS011;54354;44.724;11.284;2024-02-26T05:25:15;5.88;;;5.20;;
67508;SDS011;54354;44.724;11.284;2024-02-26T05:27:42;6.65;;;5.35;;
67508;SDS011;54354;44.724;11.284;2024-02-26T05:30:08;5.82;;;5.20;;
67508;SDS011;54354;44.724;11.284;2024-02-26T05:32:35;10.27;;;5.50;;
67508;SDS011;54354;44.724;11.284;2024-02-26T05:35:00;7.63;;;5.30;;
67508;SDS011;54354;44.724;11.284;2024-02-26T05:37:26;7.78;;;6.00;;
67508;SDS011;54354;44.724;11.284;2024-02-26T05:39:51;7.88;;;5.57;;
67508;SDS011;54354;44.724;11.284;2024-02-26T05:42:17;8.55;;;5.78;;
67508;SDS011;54354;44.724;11.284;2024-02-26T05:44:42;9.50;;;5.93;;
67508;SDS011;54354;44.724;11.284;2024-02-26T05:47:08;8.88;;;5.80;;
67508;SDS011;54354;44.724;11.284;2024-02-26T05:49:33;9.73;;;6.22;;
67508;SDS011;54354;44.724;11.284;2024-02-26T05:51:59;9.75;;;5.82;;
67508;SDS011;54354;44.724;11.284;2024-02-26T05:54:24;6.38;;;5.45;;
67508;SDS011;54354;44.724;11.284;2024-02-26T05:56:50;8.93;;;5.80;;
67508;SDS011;54354;44.724;11.284;2024-02-26T05:59:16;7.13;;;5.70;;
67508;SDS011;54354;44.724;11.284;2024-02-26T06:01:41;9.55;;;5.80;;
67508;SDS011;54354;44.724;11.284;2024-02-26T06:04:07;7.05;;;5.57;;
67508;SDS011;54354;44.724;11.284;2024-02-26T06:06:32;11.13;;;5.60;;
67508;SDS011;54354;44.724;11.284;2024-02-26T06:08:58;9.02;;;5.43;;
67508;SDS011;54354;44.724;11.284;2024-02-26T06:11:23;6.32;;;5.20;;
67508;SDS011;54354;44.724;11.284;2024-02-26T06:13:49;10.45;;;6.10;;
67508;SDS011;54354;44.724;11.284;2024-02-26T06:16:15;6.82;;;5.53;;
67508;SDS011;54354;44.724;11.284;2024-02-26T06:18:41;8.38;;;5.45;;
67508;SDS011;54354;44.724;11.284;2024-02-26T06:21:09;9.73;;;5.65;;
67508;SDS011;54354;44.724;11.284;2024-02-26T06:23:35;6.22;;;5.63;;
67508;SDS011;54354;44.724;11.284;2024-02-26T06:26:01;9.73;;;5.55;;
67508;SDS011;54354;44.724;11.284;2024-02-26T06:28:26;9.35;;;5.30;;
67508;SDS011;54354;44.724;11.284;2024-02-26T06:30:55;7.32;;;5.32;;
67508;SDS011;54354;44.724;11.284;2024-02-26T06:33:21;6.07;;;5.28;;
67508;SDS011;54354;44.724;11.284;2024-02-26T06:35:46;6.53;;;5.82;;
67508;SDS011;54354;44.724;11.284;2024-02-26T06:38:12;6.93;;;5.50;;
67508;SDS011;54354;44.724;11.284;2024-02-26T06:40:39;9.02;;;5.55;;
67508;SDS011;54354;44.724;11.284;2024-02-26T06:43:05;10.23;;;5.78;;
67508;SDS011;54354;44.724;11.284;2024-02-26T06:45:31;9.13;;;5.88;;
67508;SDS011;54354;44.724;11.284;2024-02-26T06:47:56;13.35;;;6.03;;
67508;SDS011;54354;44.724;11.284;2024-02-26T06:50:22;12.13;;;6.40;;
67508;SDS011;54354;44.724;11.284;2024-02-26T06:52:47;16.25;;;6.35;;
67508;SDS011;54354;44.724;11.284;2024-02-26T06:55:13;17.35;;;6.80;;
67508;SDS011;54354;44.724;11.284;2024-02-26T06:57:39;12.70;;;6.18;;
67508;SDS011;54354;44.724;11.284;2024-02-26T07:00:04;8.23;;;5.72;;
67508;SDS011;54354;44.724;11.284;2024-02-26T07:02:31;12.00;;;6.18;;
67508;SDS011;54354;44.724;11.284;2024-02-26T07:04:57;8.60;;;6.18;;
67508;SDS011;54354;44.724;11.284;2024-02-26T07:07:26;10.40;;;6.38;;
67508;SDS011;54354;44.724;11.284;2024-02-26T07:09:51;10.23;;;6.25;;
67508;SDS011;54354;44.724;11.284;2024-02-26T07:12:17;10.40;;;6.32;;
67508;SDS011;54354;44.724;11.284;2024-02-26T07:14:42;12.13;;;6.50;;
67508;SDS011;54354;44.724;11.284;2024-02-26T07:17:08;6.50;;;5.90;;
67508;SDS011;54354;44.724;11.284;2024-02-26T07:19:34;10.80;;;6.32;;
67508;SDS011;54354;44.724;11.284;2024-02-26T07:21:59;8.00;;;6.60;;
67508;SDS011;54354;44.724;11.284;2024-02-26T07:24:27;9.48;;;6.60;;
67508;SDS011;54354;44.724;11.284;2024-02-26T07:26:53;8.93;;;6.30;;
67508;SDS011;54354;44.724;11.284;2024-02-26T07:29:22;8.13;;;6.50;;
67508;SDS011;54354;44.724;11.284;2024-02-26T07:31:47;8.60;;;6.45;;
67508;SDS011;54354;44.724;11.284;2024-02-26T07:34:13;10.27;;;6.28;;
67508;SDS011;54354;44.724;11.284;2024-02-26T07:36:39;8.45;;;6.68;;
67508;SDS011;54354;44.724;11.284;2024-02-26T07:39:05;7.65;;;6.30;;
67508;SDS011;54354;44.724;11.284;2024-02-26T07:41:30;8.85;;;6.18;;
67508;SDS011;54354;44.724;11.284;2024-02-26T07:43:56;8.88;;;6.30;;
67508;SDS011;54354;44.724;11.284;2024-02-26T07:46:22;19.40;;;13.35;;
67508;SDS011;54354;44.724;11.284;2024-02-26T07:48:47;11.73;;;6.78;;
67508;SDS011;54354;44.724;11.284;2024-02-26T07:51:14;8.05;;;6.72;;
67508;SDS011;54354;44.724;11.284;2024-02-26T07:53:40;9.45;;;6.55;;
67508;SDS011;54354;44.724;11.284;2024-02-26T08:01:32;18.38;;;13.40;;
67508;SDS011;54354;44.724;11.284;2024-02-26T08:04:03;16.27;;;8.55;;
67508;SDS011;54354;44.724;11.284;2024-02-26T08:06:29;11.10;;;7.80;;
67508;SDS011;54354;44.724;11.284;2024-02-26T08:08:55;9.40;;;6.10;;
67508;SDS011;54354;44.724;11.284;2024-02-26T08:11:24;8.43;;;5.88;;
67508;SDS011;54354;44.724;11.284;2024-02-26T08:17:51;12.15;;;9.07;;
67508;SDS011;54354;44.724;11.284;2024-02-26T08:20:17;12.43;;;8.07;;
67508;SDS011;54354;44.724;11.284;2024-02-26T08:22:49;9.60;;;6.38;;
67508;SDS011;54354;44.724;11.284;2024-02-26T08:25:15;8.25;;;6.50;;
67508;SDS011;54354;44.724;11.284;2024-02-26T08:28:25;8.57;;;5.70;;
67508;SDS011;54354;44.724;11.284;2024-02-26T08:31:08;6.72;;;5.28;;
67508;SDS011;54354;44.724;11.284;2024-02-26T08:33:36;10.50;;;5.65;;
67508;SDS011;54354;44.724;11.284;2024-02-26T08:36:27;9.55;;;5.20;;
67508;SDS011;54354;44.724;11.284;2024-02-26T08:42:39;6.78;;;5.50;;
67508;SDS011;54354;44.724;11.284;2024-02-26T08:45:09;8.88;;;6.10;;
67508;SDS011;54354;44.724;11.284;2024-02-26T08:47:38;8.35;;;5.40;;
67508;SDS011;54354;44.724;11.284;2024-02-26T08:50:06;6.07;;;5.00;;
67508;SDS011;54354;44.724;11.284;2024-02-26T08:52:37;10.05;;;5.95;;
67508;SDS011;54354;44.724;11.284;2024-02-26T08:58:55;7.40;;;5.70;;
67508;SDS011;54354;44.724;11.284;2024-02-26T09:05:02;6.93;;;5.40;;
67508;SDS011;54354;44.724;11.284;2024-02-26T09:07:31;8.32;;;5.68;;
67508;SDS011;54354;44.724;11.284;2024-02-26T09:10:03;7.10;;;6.00;;
67508;SDS011;54354;44.724;11.284;2024-02-26T09:12:35;6.28;;;5.65;;
67508;SDS011;54354;44.724;11.284;2024-02-26T09:15:05;7.30;;;6.10;;
67508;SDS011;54354;44.724;11.284;2024-02-26T09:17:35;6.35;;;5.78;;
67508;SDS011;54354;44.724;11.284;2024-02-26T09:20:03;6.72;;;5.60;;
67508;SDS011;54354;44.724;11.284;2024-02-26T09:29:12;6.10;;;5.50;;
67508;SDS011;54354;44.724;11.284;2024-02-26T09:32:06;6.78;;;4.95;;
67508;SDS011;54354;44.724;11.284;2024-02-26T09:40:54;6.90;;;4.88;;
67508;SDS011;54354;44.724;11.284;2024-02-26T09:43:24;6.95;;;4.80;;
67508;SDS011;54354;44.724;11.284;2024-02-26T09:49:49;6.43;;;4.60;;
67508;SDS011;54354;44.724;11.284;2024-02-26T09:52:17;5.25;;;4.75;;
67508;SDS011;54354;44.724;11.284;2024-02-26T09:54:47;5.10;;;4.60;;
67508;SDS011;54354;44.724;11.284;2024-02-26T10:00:56;5.65;;;3.97;;
67508;SDS011;54354;44.724;11.284;2024-02-26T10:07:15;5.53;;;3.30;;
67508;SDS011;54354;44.724;11.284;2024-02-26T10:15:56;3.28;;;2.25;;
67508;SDS011;54354;44.724;11.284;2024-02-26T10:18:27;3.92;;;2.60;;
67508;SDS011;54354;44.724;11.284;2024-02-26T10:21:01;3.70;;;2.25;;
67508;SDS011;54354;44.724;11.284;2024-02-26T10:23:30;5.13;;;2.30;;
67508;SDS011;54354;44.724;11.284;2024-02-26T10:29:48;4.90;;;2.10;;
67508;SDS011;54354;44.724;11.284;2024-02-26T10:35:58;3.92;;;2.22;;
67508;SDS011;54354;44.724;11.284;2024-02-26T10:38:24;5.20;;;2.47;;
67508;SDS011;54354;44.724;11.284;2024-02-26T10:40:49;4.43;;;2.30;;
67508;SDS011;54354;44.724;11.284;2024-02-26T10:43:24;5.90;;;2.50;;
67508;SDS011;54354;44.724;11.284;2024-02-26T10:45:56;4.60;;;2.30;;
67508;SDS011;54354;44.724;11.284;2024-02-26T10:58:26;4.75;;;2.63;;
67508;SDS011;54354;44.724;11.284;2024-02-26T11:04:36;7.80;;;2.70;;
67508;SDS011;54354;44.724;11.284;2024-02-26T11:07:43;8.88;;;2.63;;
67508;SDS011;54354;44.724;11.284;2024-02-26T11:10:12;4.18;;;1.75;;
67508;SDS011;54354;44.724;11.284;2024-02-26T11:12:41;5.75;;;2.03;;
67508;SDS011;54354;44.724;11.284;2024-02-26T11:15:11;3.80;;;1.98;;
67508;SDS011;54354;44.724;11.284;2024-02-26T11:17:37;5.65;;;2.10;;
67508;SDS011;54354;44.724;11.284;2024-02-26T11:20:10;3.03;;;2.00;;
67508;SDS011;54354;44.724;11.284;2024-02-26T11:22:41;3.78;;;2.20;;
67508;SDS011;54354;44.724;11.284;2024-02-26T11:25:10;4.18;;;2.40;;
67508;SDS011;54354;44.724;11.284;2024-02-26T11:27:59;4.70;;;2.78;;
67508;SDS011;54354;44.724;11.284;2024-02-26T11:34:09;5.32;;;3.45;;
67508;SDS011;54354;44.724;11.284;2024-02-26T11:36:36;4.70;;;3.47;;
67508;SDS011;54354;44.724;11.284;2024-02-26T11:39:04;7.43;;;4.10;;
67508;SDS011;54354;44.724;11.284;2024-02-26T11:41:37;5.07;;;4.15;;
67508;SDS011;54354;44.724;11.284;2024-02-26T11:44:05;5.63;;;4.15;;
67508;SDS011;54354;44.724;11.284;2024-02-26T11:46:32;6.72;;;3.90;;
67508;SDS011;54354;44.724;11.284;2024-02-26T11:55:33;6.75;;;4.80;;
67508;SDS011;54354;44.724;11.284;2024-02-26T11:58:08;7.13;;;5.22;;
67508;SDS011;54354;44.724;11.284;2024-02-26T12:00:34;8.07;;;5.30;;
67508;SDS011;54354;44.724;11.284;2024-02-26T12:03:03;7.93;;;5.20;;
67508;SDS011;54354;44.724;11.284;2024-02-26T12:06:10;6.57;;;5.00;;
67508;SDS011;54354;44.724;11.284;2024-02-26T12:14:52;11.15;;;8.10;;
67508;SDS011;54354;44.724;11.284;2024-02-26T12:17:27;10.02;;;8.07;;
67508;SDS011;54354;44.724;11.284;2024-02-26T12:19:53;11.15;;;9.90;;
67508;SDS011;54354;44.724;11.284;2024-02-26T12:22:24;12.85;;;10.65;;
67508;SDS011;54354;44.724;11.284;2024-02-26T12:24:58;13.38;;;11.98;;
67508;SDS011;54354;44.724;11.284;2024-02-26T12:28:39;13.50;;;11.55;;
67508;SDS011;54354;44.724;11.284;2024-02-26T12:31:34;14.07;;;12.00;;
67508;SDS011;54354;44.724;11.284;2024-02-26T12:34:28;15.98;;;11.85;;
67508;SDS011;54354;44.724;11.284;2024-02-26T12:36:57;14.57;;;11.45;;
67508;SDS011;54354;44.724;11.284;2024-02-26T12:39:23;17.10;;;12.30;;
67508;SDS011;54354;44.724;11.284;2024-02-26T12:41:52;16.27;;;12.15;;
67508;SDS011;54354;44.724;11.284;2024-02-26T12:44:18;14.43;;;11.25;;
67508;SDS011;54354;44.724;11.284;2024-02-26T12:46:50;14.57;;;11.30;;
67508;SDS011;54354;44.724;11.284;2024-02-26T12:49:16;15.10;;;11.35;;
67508;SDS011;54354;44.724;11.284;2024-02-26T12:51:47;13.30;;;11.75;;
67508;SDS011;54354;44.724;11.284;2024-02-26T12:54:16;15.65;;;11.23;;
67508;SDS011;54354;44.724;11.284;2024-02-26T12:56:42;15.60;;;10.50;;
67508;SDS011;54354;44.724;11.284;2024-02-26T12:59:08;17.17;;;12.00;;
67508;SDS011;54354;44.724;11.284;2024-02-26T13:01:35;11.45;;;9.70;;
67508;SDS011;54354;44.724;11.284;2024-02-26T13:04:30;13.50;;;9.73;;
67508;SDS011;54354;44.724;11.284;2024-02-26T13:13:06;10.35;;;5.88;;
67508;SDS011;54354;44.724;11.284;2024-02-26T13:15:32;5.90;;;4.97;;
67508;SDS011;54354;44.724;11.284;2024-02-26T13:17:57;8.38;;;4.68;;
67508;SDS011;54354;44.724;11.284;2024-02-26T13:21:20;5.53;;;4.05;;
67508;SDS011;54354;44.724;11.284;2024-02-26T13:27:30;5.57;;;3.90;;
67508;SDS011;54354;44.724;11.284;2024-02-26T13:30:09;6.22;;;3.75;;
67508;SDS011;54354;44.724;11.284;2024-02-26T13:32:41;9.55;;;4.65;;
67508;SDS011;54354;44.724;11.284;2024-02-26T13:38:55;6.68;;;4.13;;
67508;SDS011;54354;44.724;11.284;2024-02-26T13:41:27;8.00;;;4.30;;
67508;SDS011;54354;44.724;11.284;2024-02-26T13:44:51;4.25;;;3.85;;
67508;SDS011;54354;44.724;11.284;2024-02-26T13:51:00;4.88;;;2.65;;
67508;SDS011;54354;44.724;11.284;2024-02-26T13:57:14;2.58;;;1.98;;
67508;SDS011;54354;44.724;11.284;2024-02-26T14:03:29;3.50;;;1.55;;
67508;SDS011;54354;44.724;11.284;2024-02-26T14:12:13;3.22;;;1.25;;
67508;SDS011;54354;44.724;11.284;2024-02-26T14:14:42;2.08;;;1.60;;
67508;SDS011;54354;44.724;11.284;2024-02-26T14:17:17;3.00;;;1.58;;
67508;SDS011;54354;44.724;11.284;2024-02-26T14:20:12;2.25;;;1.35;;
67508;SDS011;54354;44.724;11.284;2024-02-26T14:22:45;2.45;;;1.60;;
67508;SDS011;54354;44.724;11.284;2024-02-26T14:25:21;1.30;;;1.17;;
67508;SDS011;54354;44.724;11.284;2024-02-26T14:28:05;0.98;;;0.80;;
67508;SDS011;54354;44.724;11.284;2024-02-26T14:30:33;2.55;;;0.80;;
67508;SDS011;54354;44.724;11.284;2024-02-26T14:33:25;1.00;;;0.60;;
67508;SDS011;54354;44.724;11.284;2024-02-26T14:39:37;0.70;;;0.70;;
67508;SDS011;54354;44.724;11.284;2024-02-26T14:42:06;1.52;;;0.52;;
67508;SDS011;54354;44.724;11.284;2024-02-26T14:44:37;1.02;;;0.60;;
67508;SDS011;54354;44.724;11.284;2024-02-26T14:47:06;1.05;;;0.65;;
67508;SDS011;54354;44.724;11.284;2024-02-26T14:49:35;1.00;;;0.60;;
67508;SDS011;54354;44.724;11.284;2024-02-26T14:52:09;1.40;;;0.50;;
67508;SDS011;54354;44.724;11.284;2024-02-26T14:54:38;1.55;;;0.57;;
67508;SDS011;54354;44.724;11.284;2024-02-26T15:03:15;2.45;;;0.60;;
67508;SDS011;54354;44.724;11.284;2024-02-26T15:09:02;1.88;;;0.77;;
67508;SDS011;54354;44.724;11.284;2024-02-26T15:12:08;1.13;;;0.60;;
67508;SDS011;54354;44.724;11.284;2024-02-26T15:14:37;1.55;;;0.63;;
67508;SDS011;54354;44.724;11.284;2024-02-26T15:17:33;2.17;;;0.85;;
67508;SDS011;54354;44.724;11.284;2024-02-26T15:23:42;2.13;;;0.80;;
67508;SDS011;54354;44.724;11.284;2024-02-26T15:26:13;1.10;;;0.80;;
67508;SDS011;54354;44.724;11.284;2024-02-26T15:28:45;3.83;;;1.20;;
67508;SDS011;54354;44.724;11.284;2024-02-26T15:34:57;2.88;;;0.88;;
67508;SDS011;54354;44.724;11.284;2024-02-26T15:37:32;3.35;;;0.90;;
67508;SDS011;54354;44.724;11.284;2024-02-26T15:41:11;4.18;;;1.02;;
67508;SDS011;54354;44.724;11.284;2024-02-26T15:49:45;2.83;;;1.00;;
67508;SDS011;54354;44.724;11.284;2024-02-26T15:52:11;2.72;;;0.80;;
67508;SDS011;54354;44.724;11.284;2024-02-26T15:54:42;2.13;;;1.00;;
67508;SDS011;54354;44.724;11.284;2024-02-26T15:57:13;3.15;;;0.90;;
67508;SDS011;54354;44.724;11.284;2024-02-26T16:09:36;1.85;;;1.00;;
67508;SDS011;54354;44.724;11.284;2024-02-26T16:12:03;2.88;;;0.90;;
67508;SDS011;54354;44.724;11.284;2024-02-26T16:15:28;1.73;;;1.00;;
67508;SDS011;54354;44.724;11.284;2024-02-26T16:21:35;2.50;;;1.20;;
67508;SDS011;54354;44.724;11.284;2024-02-26T16:24:01;2.47;;;1.10;;
67508;SDS011;54354;44.724;11.284;2024-02-26T16:26:27;2.65;;;1.02;;
67508;SDS011;54354;44.724;11.284;2024-02-26T16:28:52;5.30;;;1.45;;
67508;SDS011;54354;44.724;11.284;2024-02-26T16:31:24;3.38;;;1.30;;
67508;SDS011;54354;44.724;11.284;2024-02-26T16:37:35;4.90;;;1.25;;
67508;SDS011;54354;44.724;11.284;2024-02-26T16:40:05;3.70;;;1.63;;
67508;SDS011;54354;44.724;11.284;2024-02-26T16:42:34;3.75;;;1.58;;
67508;SDS011;54354;44.724;11.284;2024-02-26T16:45:06;3.47;;;1.70;;
67508;SDS011;54354;44.724;11.284;2024-02-26T16:47:34;5.15;;;1.80;;
67508;SDS011;54354;44.724;11.284;2024-02-26T16:56:21;5.63;;;2.10;;
67508;SDS011;54354;44.724;11.284;2024-02-26T16:58:54;4.20;;;2.10;;
67508;SDS011;54354;44.724;11.284;2024-02-26T17:01:29;4.55;;;2.20;;
67508;SDS011;54354;44.724;11.284;2024-02-26T17:04:00;5.78;;;2.08;;
67508;SDS011;54354;44.724;11.284;2024-02-26T17:12:42;5.07;;;2.63;;
67508;SDS011;54354;44.724;11.284;2024-02-26T17:15:11;4.32;;;2.72;;
67508;SDS011;54354;44.724;11.284;2024-02-26T17:17:37;7.38;;;2.80;;
67508;SDS011;54354;44.724;11.284;2024-02-26T17:20:15;6.72;;;2.42;;
67508;SDS011;54354;44.724;11.284;2024-02-26T17:22:41;5.15;;;2.28;;
67508;SDS011;54354;44.724;11.284;2024-02-26T17:25:15;8.50;;;2.35;;
67508;SDS011;54354;44.724;11.284;2024-02-26T17:27:44;6.65;;;2.30;;
67508;SDS011;54354;44.724;11.284;2024-02-26T17:37:34;5.80;;;2.85;;
67508;SDS011;54354;44.724;11.284;2024-02-26T17:40:01;23.17;;;3.88;;
67508;SDS011;54354;44.724;11.284;2024-02-26T17:45:06;6.93;;;3.40;;
67508;SDS011;54354;44.724;11.284;2024-02-26T18:00:32;11.98;;;4.65;;